Terminal Aerodrome Forecast
Issued by NWS

Home | Current Version | Previous Version | Text Only | Print | Product List | Glossary On
Versions: 1 2 3 4 5 6 7 8 9 10 11 12 13 14 15 16 17 18 19 20 21 22 23 24 25 26 27 28 29 30 31 32 33 34 35 36
000
FTUS45 KBOU 241728
TAFBJC
TAF
KBJC 241728Z 2418/2518 28012KT P6SM VCSH SCT040 BKN080
     FM242000 34010KT P6SM -SHRA SCT040 BKN080
     FM250000 12007KT P6SM FEW080 BKN120
     FM250600 VRB06KT P6SM SCT120 BKN200
     FM251500 33008KT P6SM SCT120=

USA.gov is the U.S. government's official web portal to all federal, state and local government web resources and services.